x

Bay Of Campeche - 214 Nm Ne Of Veracruz, Mx (42055) Wave Buoy

11:50pm - Sun 1st Mar 2015 All times are UTC.

  • Sig Wave height 4.3ft
  • Swell Direction
  • Peak Period 8s
  • Average Period 6s
  • Wind
    9mph, 11mph gusts
  • Sea Temp 76°f
  • Air Temp 75°f
  • Sea Pressure 1019.5mb

More Historic Weather Station data

Upgrade to MSW Pro to gain access to the past 30 days of data for over 8000 Wavebouys and Weather Stations around the globe.

Join Pro

Comparision Forecast

View Surf forecast
   
Sun 03/01 11:50pm 4.5ft 8s 6s 9 11 mph 1019.5mb 76f 75f
10:50pm 4.5ft 8s 6s 4 7 mph 1019.2mb 76f 75f
9:50pm 4.5ft 8s 6s 4 7 mph 1019.1mb 76f 75f
8:50pm 4.5ft 8s 6s 4 7 mph 1019.2mb 76f 75f
7:50pm 4.5ft 9s 6s 7
mph
1019.8mb 75f 75f
6:50pm 5ft 8s 7s 7 9 mph 1020.4mb 75f 75f
5:50pm 5ft 8s 7s 7 9 mph 1020.8mb 75f 75f
4:50pm 5ft 8s 7s 7 9 mph 1021.4mb 74f 75f
3:50pm 5ft 8s 7s 4 7 mph 1021.3mb 74f 75f
2:50pm 5.5ft 9s 7s 2 4 mph 1020.7mb 74f 75f
1:50pm 6ft 9s 7s 2 4 mph 1020.4mb 74f 74f
12:50pm 5ft 8s 6s  -  2 mph 1019.7mb 74f 74f
11:50am 5.5ft 9s 7s 4 7 mph 1018.9mb 74f 74f
10:50am 6ft 8s 7s 9 11 mph 1018.1mb 74f 74f
9:50am 5ft 8s 6s 9 11 mph 1017.9mb 74f 74f
8:50am 5ft 8s 6s 7 9 mph 1017.7mb 74f 74f
7:50am 5.5ft 8s 6s 9 11 mph 1018mb 74f 74f
6:50am 5.5ft 8s 6s 13 18 mph 1018.3mb 74f 74f
5:50am 5ft 8s 6s 16 18 mph 1018.7mb 74f 74f
4:50am 5ft 8s 6s 16 18 mph 1018.9mb 74f 74f
3:50am 5ft 8s 6s 13 16 mph 1018.9mb 74f 74f
2:50am 5ft 8s 6s 9 11 mph 1018.5mb 74f 74f
1:50am 5ft 8s 6s 11
mph
1017.7mb 74f 74f
12:50am 5.5ft 8s 6s 16 18 mph 1016.9mb 74f 75f
Sat 02/28 11:50pm 5.5ft 8s 6s 13 16 mph 1016.7mb 74f 75f
10:50pm 5.5ft 8s 6s 13 16 mph 1016.4mb 74f 75f
9:50pm 5.5ft 8s 6s 13 18 mph 1016.1mb 74f 75f
8:50pm 5.5ft 8s 6s 13 16 mph 1016.5mb 74f 75f
7:50pm 5.5ft 8s 6s 11 13 mph 1017mb 74f 74f
6:50pm 6ft 8s 6s 11 13 mph 1017.8mb 74f 74f
5:50pm 6ft 8s 6s 11 16 mph 1018.7mb 74f 74f
4:50pm 7ft 8s 6s 11 13 mph 1019.4mb 74f 74f
3:50pm 6.5ft 8s 6s 13 16 mph 1019.3mb 74f 74f
2:50pm 6ft 8s 6s 13 16 mph 1019mb 74f 74f
1:50pm 5.5ft 8s 6s 13 16 mph 1018.6mb 74f 74f
12:50pm 6ft 8s 6s 13 18 mph 1017.9mb 74f 74f
11:50am 6ft 8s 6s 16 18 mph 1017.7mb 74f 74f
10:50am 6ft 8s 6s 13 16 mph 1017.2mb 74f 74f
9:50am 6ft 8s 6s 13
mph
1017.1mb 74f 74f
8:50am 6ft 8s 6s 13 16 mph 1017.1mb 74f 74f
7:50am 6ft 8s 6s 16 18 mph 1017.2mb 74f 73f
6:50am 6ft 8s 6s 16 20 mph 1017.5mb 74f 73f
5:50am 6ft 8s 6s 18 20 mph 1017.6mb 74f 73f
4:50am 7ft 8s 6s 16 20 mph 1018.1mb 74f 73f
3:50am 6ft 8s 5s 18 22 mph 1017.9mb 74f 73f
2:50am 6ft 8s 6s 20 22 mph 1017.8mb 74f 73f
1:50am 5.5ft 7s 5s 16 20 mph 1017.4mb 74f 72f
12:50am 5ft 7s 5s 13 18 mph 1016.8mb 74f 72f
Fri 02/27 11:50pm 6ft 7s 6s 18 20 mph 1016.4mb 74f 71f
10:50pm 5.5ft 7s 5s 20 22 mph 1015.8mb 74f 71f
9:50pm 5.5ft 7s 5s 20 22 mph 1015.9mb 74f 71f
8:50pm 5.5ft 7s 5s 18 22 mph 1016.3mb 74f 72f
7:50pm 5.5ft 7s 5s 18 20 mph 1017.1mb 74f 72f
6:50pm 5.5ft 8s 5s 18 22 mph 1017.8mb 74f 71f
5:50pm 5.5ft 7s 5s 20 22 mph 1018.6mb 74f 71f
4:50pm 6ft 8s 5s 20 25 mph 1019.3mb 74f 71f
3:50pm 5.5ft 7s 5s 22 25 mph 1019.1mb 74f 71f
2:50pm 5ft 7s 5s 20 25 mph 1019.1mb 74f 71f
1:50pm 5ft 7s 5s 20 25 mph 1018.1mb 74f 71f
12:50pm 5.5ft 7s 5s 20 25 mph 1017.4mb 74f 71f
11:50am 5ft 7s 5s 22 25 mph 1016.9mb 74f 71f
10:50am 5ft 7s 5s 20 25 mph 1016.5mb 74f 71f
9:50am 5ft 6s 5s 20 25 mph 1016.3mb 74f 71f
8:50am 4.5ft 7s 5s 18 20 mph 1016.6mb 74f 71f
7:50am 4.5ft 7s 5s 18 20 mph 1016.9mb 74f 71f
6:50am 5ft 7s 5s 16 20 mph 1017mb 74f 70f
5:50am 5ft 6s 5s 16 18 mph 1017.4mb 74f 70f
4:50am 5ft 6s 5s 18 20 mph 1017.2mb 74f 70f
3:50am 5ft 7s 5s 18 22 mph 1016.8mb 74f 70f
2:50am 5ft 7s 5s 20 25 mph 1016.2mb 74f 70f
1:50am 5ft 7s 5s 20 25 mph 1015.2mb 74f 70f
12:50am 4.5ft 7s 5s 22 27 mph 1014.5mb 74f 69f
Thu 02/26 11:50pm 4.5ft 8s 5s 20 25 mph 1014mb 74f 69f
10:50pm 4.5ft 8s 5s 20 22 mph 1013.6mb 74f 69f
9:50pm 4.5ft 8s 5s 18 22 mph 1013.2mb 74f 69f
8:50pm 4.5ft 8s 5s 18 22 mph 1013.1mb 74f 69f
7:50pm 4.5ft 8s 5s 18 20 mph 1013.4mb 74f 69f
6:50pm 4.5ft 8s 5s 16 20 mph 1013.9mb 74f 69f
5:50pm 4.5ft 8s 5s 16 20 mph 1013.9mb 74f 69f
4:50pm 5ft 8s 6s 16 18 mph 1013.9mb 74f 69f
3:50pm 5ft 8s 6s 16 20 mph 1013.9mb 74f 69f
2:50pm 5ft 9s 6s 16 18 mph 1013.5mb 73f 69f
1:50pm 5ft 8s 6s 16 18 mph 1012.5mb 73f 69f
12:50pm 5ft 9s 6s 16 18 mph 1011.9mb 73f 69f
11:50am 5.5ft 9s 6s 16 20 mph 1010.8mb 73f 69f
10:50am 6ft 9s 6s 13 18 mph 1010.4mb 74f 68f
9:50am 6ft 8s 6s 11 16 mph 1010.4mb 74f 69f
8:50am 6.5ft 9s 6s 13 16 mph 1010.2mb 74f 69f
7:50am 6ft 8s 6s 16 18 mph 1010.1mb 74f 69f
6:50am 6.5ft 8s 6s 16 18 mph 1010.7mb 74f 69f
5:50am 6.5ft 8s 6s 16 18 mph 1011.4mb 74f 69f
4:50am 6.5ft 8s 6s 11 13 mph 1011.4mb 74f 70f
3:50am 6ft 8s 6s 11 16 mph 1011.1mb 74f 70f
2:50am 7ft 7s 6s 13 18 mph 1010.6mb 74f 70f
1:50am 6ft 7s 5s 18 22 mph 1009.6mb 74f 70f
12:50am 6ft 6s 5s 20 25 mph 1008.9mb 74f 70f